Bookmark and Share
Track history (hours):
 

Circle Line Brooklyn

More information available from US FCC via Universal Licensing System and Coast Guard Vessel Documentation Center.

Last reported at 2014-Apr-25 00:34 UTC. Time now 2014-Apr-25 05:46 UTC.
Position N 40°45' W 074°01'.

MMSI: 367402250.

NotesDate/timePositionNaut miles runAvg speedWind from/ knotsBaromVisibWave heightAir tempDewpointWater temp
2014-Apr-25 00:34N 40°45' W 074°01'3 2.6
2014-Apr-24 23:33N 40°42' W 073°59'4 2.0
2014-Apr-24 21:33N 40°46' W 074°00'2 1.5
2014-Apr-24 20:04N 40°46' W 073°57'611.3
2014-Apr-24 19:33N 40°41' W 074°02'5 3.5
2014-Apr-24 18:11N 40°46' W 074°00'2 1.4
2014-Apr-24 16:33N 40°44' W 073°58'2 0.1
2014-Apr-23 21:31N 40°45' W 074°01'4 4.2
2014-Apr-23 20:34N 40°41' W 074°02'4 1.8
2014-Apr-23 18:33N 40°45' W 074°01'4 3.8
2014-Apr-23 17:33N 40°41' W 074°03'5 2.1
2014-Apr-23 15:09N 40°46' W 074°00'4 7.1
2014-Apr-23 14:33N 40°42' W 074°02'3 0.2
2014-Apr-22 21:31N 40°45' W 074°01'4 3.7
2014-Apr-22 20:33N 40°41' W 074°03'3 1.3
2014-Apr-22 18:33N 40°44' W 074°01'2 2.4
2014-Apr-22 17:33N 40°41' W 074°02'0 0.0
2014-Apr-22 14:33N 40°41' W 074°02'5 0.4
2014-Apr-22 01:07N 40°46' W 074°00'2 3.1
2014-Apr-22 00:33N 40°44' W 074°01'2 2.3
2014-Apr-21 23:33N 40°42' W 073°59'6 1.9
2014-Apr-21 20:28N 40°48' W 073°56'7 8.2
2014-Apr-21 19:34N 40°42' W 074°02'4 2.9
2014-Apr-21 18:04N 40°46' W 074°00'2 1.5
2014-Apr-21 16:33N 40°44' W 073°58'2 0.1
2014-Apr-21 00:18N 40°45' W 074°01'2 3.2
2014-Apr-20 23:34N 40°44' W 073°58'3 1.6
2014-Apr-20 21:32N 40°47' W 073°60'3 2.6
2014-Apr-20 20:33N 40°45' W 073°58'4 4.2
2014-Apr-20 19:33N 40°42' W 074°02'4 3.0
2014-Apr-20 18:07N 40°46' W 074°00'2 3.4
2014-Apr-20 17:32N 40°44' W 074°01'2 2.4
2014-Apr-20 16:33N 40°44' W 073°58'3 0.2
2014-Apr-20 00:33N 40°43' W 074°02'1 1.3
2014-Apr-19 23:33N 40°42' W 074°00'3 1.4
2014-Apr-19 21:21N 40°45' W 074°01'3 3.9
2014-Apr-19 20:33N 40°42' W 073°59'3 1.4
2014-Apr-19 18:16N 40°45' W 074°01'2 3.3
2014-Apr-19 17:33N 40°44' W 073°58'2 1.0
2014-Apr-19 15:05N 40°46' W 074°00'5 8.9
2014-Apr-19 14:34N 40°41' W 074°03'5 0.4
2014-Apr-19 00:28N 40°46' W 074°00'3 3.4
2014-Apr-18 23:33N 40°43' W 073°58'3 1.5
2014-Apr-18 21:27N 40°46' W 074°00'4 4.0
2014-Apr-18 20:33N 40°42' W 073°59'2 0.8
2014-Apr-18 18:34N 40°43' W 074°01'7 5.1
2014-Apr-18 17:10N 40°49' W 073°56'5 8.8
2014-Apr-18 16:33N 40°44' W 073°58'3 0.1
2014-Apr-17 21:31N 40°46' W 074°00'2 1.8
2014-Apr-17 20:13N 40°46' W 073°57'6 9.1
2014-Apr-17 19:33N 40°41' W 074°03'5 3.5
2014-Apr-17 18:07N 40°46' W 074°00'5 5.0
2014-Apr-17 17:10N 40°49' W 073°56'610.0
2014-Apr-17 16:33N 40°43' W 073°58'3 0.1
2014-Apr-15 21:33N 40°45' W 074°01'4 3.8
2014-Apr-15 20:33N 40°41' W 074°03'3 1.4
2014-Apr-15 18:33N 40°44' W 074°01'3 2.5
2014-Apr-15 17:32N 40°41' W 074°03'5 2.0
2014-Apr-15 15:08N 40°46' W 074°00'4 6.7
2014-Apr-15 14:34N 40°42' W 074°02'  

Dump ship's entire track history

sailing weather and tide predictions

Circle Line Brooklyn — WDE8160 — position and weather